Time;durP1;ratioP1;P1;durP2;ratioP2;P2;SDS_P1;SDS_P2;PMS_P1;PMS_P2;Temp;Humidity;BMP_temperature;BMP_pressure;BME280_temperature;BME280_humidity;BME280_pressure;Samples;Min_cycle;Max_cycle;Signal;HPM_P1;HPM_P2
2023/05/22 00:01:25;;;;;;;15.33;4.33;;;;;;;18.94;70.91;98618.88;4919543;29;20183;-88
2023/05/22 00:03:53;;;;;;;10.33;4.83;;;;;;;18.86;70.74;98623.22;4919654;29;20202;-88
2023/05/22 00:06:19;;;;;;;10.20;4.87;;;;;;;18.51;72.70;98628.34;4919465;29;20201;-89
2023/05/22 00:08:44;;;;;;;10.03;4.77;;;;;;;18.66;72.26;98622.44;4919469;29;20632;-88
2023/05/22 00:11:10;;;;;;;9.27;4.47;;;;;;;18.67;72.12;98620.63;4919933;29;20178;-88
2023/05/22 00:13:37;;;;;;;9.93;4.20;;;;;;;18.85;70.96;98617.06;4919315;29;20224;-88
2023/05/22 00:16:02;;;;;;;13.80;5.07;;;;;;;19.11;70.02;98624.38;4919340;29;20189;-88
2023/05/22 00:18:28;;;;;;;11.27;4.77;;;;;;;19.14;69.70;98622.28;4928279;29;20227;-88
2023/05/22 00:20:55;;;;;;;7.77;4.57;;;;;;;19.23;69.50;98617.91;4918284;29;20179;-88
2023/05/22 00:23:20;;;;;;;9.30;5.00;;;;;;;19.33;69.21;98624.00;4919162;29;20290;-88
2023/05/22 00:25:46;;;;;;;9.90;4.13;;;;;;;19.27;69.04;98619.25;4919192;29;20599;-89
2023/05/22 00:28:13;;;;;;;10.43;4.40;;;;;;;19.24;69.50;98616.91;4919129;29;20189;-90
2023/05/22 00:30:38;;;;;;;10.73;4.80;;;;;;;19.06;70.49;98616.84;4919057;29;20249;-88
2023/05/22 00:33:04;;;;;;;10.63;3.87;;;;;;;19.03;70.05;98615.31;4919104;29;20298;-88
2023/05/22 00:35:29;;;;;;;7.63;4.10;;;;;;;19.13;69.88;98614.47;4919275;29;20186;-88
2023/05/22 00:37:55;;;;;;;7.50;4.27;;;;;;;19.23;68.97;98615.25;4918068;29;20555;-88
2023/05/22 00:40:21;;;;;;;7.90;4.43;;;;;;;19.31;68.70;98618.00;4918840;29;20185;-88
2023/05/22 00:42:47;;;;;;;8.30;4.13;;;;;;;19.45;68.56;98617.53;4918577;29;20270;-88
2023/05/22 00:45:14;;;;;;;6.70;3.60;;;;;;;19.40;68.25;98617.13;4919098;29;20181;-88
2023/05/22 00:47:40;;;;;;;7.57;3.47;;;;;;;19.42;68.50;98623.97;4919339;29;20186;-88
2023/05/22 00:50:08;;;;;;;8.33;3.50;;;;;;;19.57;67.90;98621.66;4918723;29;20171;-88
2023/05/22 00:52:36;;;;;;;7.73;3.83;;;;;;;19.66;68.00;98626.06;4918647;29;20167;-88
2023/05/22 00:55:03;;;;;;;7.23;4.20;;;;;;;19.70;67.73;98619.47;4918660;29;20175;-88
2023/05/22 00:57:32;;;;;;;7.73;4.40;;;;;;;19.80;68.20;98628.22;4918614;29;20174;-88
2023/05/22 00:59:59;;;;;;;8.20;4.80;;;;;;;19.78;68.04;98626.69;4918383;29;20175;-88
2023/05/22 01:02:27;;;;;;;10.30;4.13;;;;;;;19.72;67.87;98621.97;4918505;29;20186;-89
2023/05/22 01:04:56;;;;;;;9.07;4.33;;;;;;;19.63;68.13;98618.38;4918383;29;20625;-89
2023/05/22 01:07:23;;;;;;;10.67;4.83;;;;;;;19.24;68.75;98612.44;4918046;29;20189;-89
2023/05/22 01:09:51;;;;;;;14.30;3.97;;;;;;;18.84;71.00;98618.03;4918268;29;20242;-89
2023/05/22 01:12:30;;;;;;;7.33;3.57;;;;;;;19.02;70.15;98616.28;4917403;29;20187;-89
2023/05/22 01:15:41;;;;;;;6.20;3.10;;;;;;;19.27;69.26;98612.13;4918631;29;20165;-88
2023/05/22 01:18:18;;;;;;;6.33;3.70;;;;;;;19.32;68.63;98609.03;4914050;29;20611;-88
2023/05/22 01:21:02;;;;;;;6.73;3.10;;;;;;;19.38;67.59;98613.78;4918253;29;20275;-88
2023/05/22 01:23:46;;;;;;;7.70;3.23;;;;;;;19.41;67.02;98613.50;4918364;29;20205;-88
2023/05/22 01:26:29;;;;;;;5.43;3.33;;;;;;;19.55;66.62;98603.19;4918391;29;20167;-89
2023/05/22 01:29:13;;;;;;;7.37;3.33;;;;;;;19.57;66.13;98601.19;4918342;29;20167;-88
2023/05/22 01:31:41;;;;;;;10.50;3.67;;;;;;;19.61;65.35;98610.56;4918252;29;20199;-88
2023/05/22 01:34:11;;;;;;;6.23;2.77;;;;;;;19.61;64.71;98610.56;4918187;29;20182;-89
2023/05/22 01:36:38;;;;;;;7.77;3.07;;;;;;;19.72;64.30;98609.53;4918143;29;20648;-89
2023/05/22 01:39:05;;;;;;;7.80;3.27;;;;;;;19.77;64.07;98615.22;4916899;29;20182;-88
2023/05/22 01:41:35;;;;;;;6.23;2.60;;;;;;;19.88;63.11;98615.00;4917173;29;20194;-89
2023/05/22 01:44:01;;;;;;;8.27;3.10;;;;;;;19.99;61.98;98608.63;4917507;29;20196;-88
2023/05/22 01:46:28;;;;;;;8.53;3.60;;;;;;;19.99;62.35;98609.47;4917977;29;20182;-88
2023/05/22 01:48:53;;;;;;;8.27;3.07;;;;;;;20.11;61.57;98602.06;4917973;29;20175;-88
2023/05/22 01:51:38;;;;;;;6.33;3.00;;;;;;;20.13;61.53;98605.41;4917657;29;20180;-88
2023/05/22 01:54:22;;;;;;;5.50;2.70;;;;;;;20.16;61.77;98600.63;4917597;29;20222;-88
2023/05/22 01:56:56;;;;;;;7.50;2.90;;;;;;;20.18;61.68;98601.28;4931987;29;20194;-88
2023/05/22 01:59:36;;;;;;;6.57;3.17;;;;;;;20.21;61.68;98598.31;4917739;29;20170;-88
2023/05/22 02:02:09;;;;;;;4.30;2.60;;;;;;;20.31;61.26;98600.13;4917435;29;20214;-88
2023/05/22 02:04:38;;;;;;;7.03;2.47;;;;;;;20.31;60.94;98602.78;4917944;29;20183;-88
2023/05/22 02:07:05;;;;;;;9.67;2.93;;;;;;;20.35;61.05;98598.78;4917433;29;20711;-88
2023/05/22 02:09:32;;;;;;;5.37;3.03;;;;;;;20.32;60.88;98599.94;4917266;29;20178;-88
2023/05/22 02:11:59;;;;;;;8.13;3.07;;;;;;;20.20;61.50;98607.28;4917350;29;20187;-88
2023/05/22 02:14:26;;;;;;;6.10;3.07;;;;;;;20.13;61.41;98600.06;4917741;29;20251;-89
2023/05/22 02:16:53;;;;;;;7.33;2.87;;;;;;;20.04;61.47;98596.53;4917296;29;20671;-89
2023/05/22 02:19:18;;;;;;;8.43;3.67;;;;;;;19.83;61.85;98597.81;4917061;29;20297;-88
2023/05/22 02:21:44;;;;;;;4.70;2.60;;;;;;;19.79;62.08;98604.41;4917137;29;20186;-89
2023/05/22 02:24:10;;;;;;;5.37;2.83;;;;;;;19.61;62.05;98597.28;4916978;29;20256;-89
2023/05/22 02:26:36;;;;;;;8.97;3.40;;;;;;;19.66;62.25;98599.47;4917158;29;20178;-88
2023/05/22 02:29:03;;;;;;;6.43;2.60;;;;;;;19.39;62.13;98604.84;4917054;29;20694;-88
2023/05/22 02:31:29;;;;;;;6.57;2.80;;;;;;;19.37;62.34;98606.75;4917372;29;20188;-89
2023/05/22 02:33:55;;;;;;;6.43;2.87;;;;;;;19.55;62.43;98602.34;4917140;29;20174;-88
2023/05/22 02:36:21;;;;;;;7.37;2.80;;;;;;;19.59;62.18;98601.06;4917360;29;20179;-88
2023/05/22 02:38:47;;;;;;;7.23;2.47;;;;;;;19.61;62.10;98607.06;4917546;29;20182;-88
2023/05/22 02:41:13;;;;;;;5.33;2.90;;;;;;;19.75;61.87;98595.94;4932074;29;20190;-89
2023/05/22 02:43:40;;;;;;;7.73;2.50;;;;;;;19.82;61.71;98602.31;4917166;29;20201;-88
2023/05/22 02:46:06;;;;;;;5.17;2.40;;;;;;;19.87;60.80;98605.34;4917005;29;20189;-88
2023/05/22 02:48:31;;;;;;;4.90;2.77;;;;;;;19.93;60.26;98602.09;4916838;29;20205;-88
2023/05/22 02:50:58;;;;;;;6.53;2.80;;;;;;;19.99;60.17;98603.31;4917172;29;20183;-88
2023/05/22 02:53:23;;;;;;;4.70;2.50;;;;;;;19.90;60.03;98596.22;4916928;29;20241;-88
2023/05/22 02:55:49;;;;;;;4.77;2.60;;;;;;;19.90;60.00;98594.41;4916893;29;20202;-88
2023/05/22 02:58:16;;;;;;;6.00;2.70;;;;;;;19.92;59.96;98602.22;4931740;29;20175;-88
2023/05/22 03:00:42;;;;;;;7.17;3.80;;;;;;;19.90;59.03;98601.53;4917023;29;20174;-88
2023/05/22 03:03:07;;;;;;;5.83;2.67;;;;;;;19.91;59.92;98590.75;4916632;29;20566;-88
2023/05/22 03:05:34;;;;;;;10.37;4.77;;;;;;;19.82;59.16;98602.31;4916969;29;20175;-88
2023/05/22 03:08:01;;;;;;;6.47;3.50;;;;;;;19.73;59.72;98592.59;4916750;29;20178;-89
2023/05/22 03:10:26;;;;;;;5.67;2.63;;;;;;;19.82;58.76;98601.47;4898333;29;20714;-88
2023/05/22 03:12:53;;;;;;;4.30;2.27;;;;;;;19.86;58.94;98602.84;4912921;29;20180;-88
2023/05/22 03:15:19;;;;;;;10.50;2.50;;;;;;;19.95;57.96;98591.28;4898057;29;20183;-89
2023/05/22 03:17:44;;;;;;;7.03;2.73;;;;;;;19.91;57.35;98596.09;4897826;29;20259;-89
2023/05/22 03:20:15;;;;;;;6.27;2.27;;;;;;;19.79;57.27;98605.25;4897693;29;20281;-88
2023/05/22 03:22:41;;;;;;;5.20;2.47;;;;;;;19.73;57.58;98592.59;4898360;29;20174;-89
2023/05/22 03:25:08;;;;;;;4.53;2.53;;;;;;;19.74;56.99;98591.59;4898192;29;20203;-89
2023/05/22 03:27:35;;;;;;;4.70;2.27;;;;;;;19.90;57.53;98601.53;4897746;29;20179;-89
2023/05/22 03:30:03;;;;;;;5.20;2.27;;;;;;;19.91;56.03;98603.22;4897997;29;20177;-89
2023/05/22 03:32:29;;;;;;;4.20;2.17;;;;;;;19.89;55.76;98602.53;4901098;29;20180;-89
2023/05/22 03:34:57;;;;;;;7.73;2.77;;;;;;;19.94;55.79;98598.41;4901763;29;20175;-89
2023/05/22 03:37:22;;;;;;;8.77;2.50;;;;;;;19.80;56.48;98592.81;4901202;29;20238;-88
2023/05/22 03:39:49;;;;;;;6.93;2.20;;;;;;;19.57;56.62;98589.75;4901659;29;20179;-88
2023/05/22 03:42:16;;;;;;;3.40;1.73;;;;;;;19.69;56.39;98599.19;4901652;29;20175;-88
2023/05/22 03:44:42;;;;;;;7.47;2.30;;;;;;;19.64;56.25;98604.13;4901000;29;20259;-88
2023/05/22 03:47:09;;;;;;;4.40;1.93;;;;;;;19.52;56.14;98602.66;4901077;29;20211;-88
2023/05/22 03:49:36;;;;;;;4.70;2.13;;;;;;;19.61;55.99;98599.94;4919208;29;20206;-88
2023/05/22 03:52:03;;;;;;;7.40;2.17;;;;;;;19.71;56.07;98604.34;4919814;29;20175;-88
2023/05/22 03:54:28;;;;;;;9.23;2.23;;;;;;;19.61;55.35;98604.41;4919821;29;20688;-89
2023/05/22 03:56:55;;;;;;;4.47;1.97;;;;;;;19.68;55.78;98610.78;4919765;29;20214;-87
2023/05/22 03:59:20;;;;;;;4.30;2.20;;;;;;;19.82;55.20;98612.09;4920499;29;20183;-88
2023/05/22 04:01:47;;;;;;;5.07;2.10;;;;;;;19.91;56.17;98608.53;4918699;29;20658;-88
2023/05/22 04:04:13;;;;;;;7.40;2.33;;;;;;;19.82;55.01;98615.59;4919497;29;20214;-89
2023/05/22 04:06:41;;;;;;;10.40;2.37;;;;;;;19.66;55.50;98620.75;4919774;29;20253;-88
2023/05/22 04:09:11;;;;;;;4.67;2.10;;;;;;;19.78;56.65;98613.41;4919276;29;20277;-88
2023/05/22 04:11:41;;;;;;;5.97;2.40;;;;;;;19.86;56.38;98617.00;4919438;29;20652;-88
2023/05/22 04:14:07;;;;;;;5.17;2.10;;;;;;;19.71;56.60;98618.47;4919439;29;20171;-88
2023/05/22 04:16:33;;;;;;;5.20;1.90;;;;;;;19.68;56.08;98621.44;4919783;29;20235;-88
2023/05/22 04:19:01;;;;;;;3.53;1.80;;;;;;;19.59;56.20;98611.72;4919374;29;20599;-89
2023/05/22 04:21:27;;;;;;;5.90;2.27;;;;;;;19.56;56.74;98618.16;4919287;29;20706;-88
2023/05/22 04:23:54;;;;;;;7.00;2.50;;;;;;;19.61;57.12;98615.03;4918219;29;20206;-88
2023/05/22 04:26:21;;;;;;;3.70;1.70;;;;;;;19.69;56.92;98617.78;4919431;29;20176;-88
2023/05/22 04:28:48;;;;;;;4.70;2.33;;;;;;;19.70;57.25;98613.31;4918192;29;20606;-89
2023/05/22 04:31:15;;;;;;;6.40;2.17;;;;;;;19.45;58.22;98622.84;4918749;29;20249;-89
2023/05/22 04:33:41;;;;;;;5.77;3.00;;;;;;;19.39;58.30;98623.44;4918153;29;20174;-88
2023/05/22 04:36:09;;;;;;;7.47;2.57;;;;;;;19.63;57.84;98627.19;4912498;29;20218;-89
2023/05/22 04:38:36;;;;;;;5.07;1.90;;;;;;;19.64;57.86;98630.69;4900147;29;20551;-88
2023/05/22 04:41:02;;;;;;;6.63;2.40;;;;;;;19.91;57.39;98636.00;4899147;29;20180;-88
2023/05/22 04:43:31;;;;;;;4.93;2.40;;;;;;;20.09;57.87;98634.16;4899123;29;20213;-88
2023/05/22 04:45:57;;;;;;;4.53;2.00;;;;;;;20.31;57.60;98634.72;4899988;29;20179;-89
2023/05/22 04:48:24;;;;;;;11.67;2.00;;;;;;;20.52;56.67;98635.22;4906212;29;20179;-88
2023/05/22 04:50:49;;;;;;;11.73;2.50;;;;;;;20.33;55.30;98633.56;4918771;29;20625;-89
2023/05/22 04:53:16;;;;;;;5.80;2.50;;;;;;;20.25;56.77;98645.97;4918724;29;20181;-88
2023/05/22 04:55:43;;;;;;;4.87;2.17;;;;;;;20.46;57.01;98649.97;4918651;29;20187;-88
2023/05/22 04:58:10;;;;;;;7.50;2.30;;;;;;;20.57;57.39;98649.72;4904957;29;20183;-88
2023/05/22 05:00:37;;;;;;;5.13;2.07;;;;;;;20.68;57.97;98649.47;4899705;29;20183;-88
2023/05/22 05:03:06;;;;;;;10.77;2.30;;;;;;;20.89;57.36;98662.41;4899680;29;20178;-88
2023/05/22 05:05:33;;;;;;;7.93;2.70;;;;;;;20.98;58.72;98660.66;4900153;29;20171;-88
2023/05/22 05:08:01;;;;;;;5.13;2.60;;;;;;;21.05;58.87;98662.53;4899811;29;20278;-88
2023/05/22 05:10:28;;;;;;;3.47;2.17;;;;;;;21.11;57.85;98661.94;4917800;29;20293;-89
2023/05/22 05:12:54;;;;;;;6.60;2.67;;;;;;;21.23;58.13;98667.81;4918903;29;20221;-88
2023/05/22 05:15:22;;;;;;;5.40;2.73;;;;;;;21.32;56.66;98669.53;4918556;29;20187;-89
2023/05/22 05:17:49;;;;;;;8.70;3.20;;;;;;;21.38;57.92;98664.38;4932807;29;20692;-88
2023/05/22 05:20:15;;;;;;;5.53;2.43;;;;;;;21.40;58.27;98673.09;4932928;29;20317;-88
2023/05/22 05:22:44;;;;;;;8.57;2.87;;;;;;;21.47;58.85;98667.09;4933290;29;20197;-88
2023/05/22 05:25:12;;;;;;;5.33;2.83;;;;;;;21.64;58.71;98671.50;4917446;29;20667;-88
2023/05/22 05:27:38;;;;;;;6.40;2.87;;;;;;;21.67;59.34;98679.19;4918035;29;20194;-88
2023/05/22 05:30:06;;;;;;;6.13;3.03;;;;;;;21.80;59.10;98674.22;4918326;29;20170;-88
2023/05/22 05:32:32;;;;;;;4.53;2.30;;;;;;;21.85;56.37;98682.56;4917991;29;20205;-89
2023/05/22 05:34:59;;;;;;;8.13;2.63;;;;;;;21.86;55.95;98679.75;4917933;29;20171;-88
2023/05/22 05:37:24;;;;;;;9.70;2.83;;;;;;;21.91;55.08;98674.78;4917923;29;20187;-88
2023/05/22 05:39:50;;;;;;;8.60;2.73;;;;;;;21.88;55.69;98674.28;4932779;29;20244;-88
2023/05/22 05:42:16;;;;;;;9.27;2.90;;;;;;;21.85;55.12;98682.56;4916893;29;20189;-89
2023/05/22 05:44:42;;;;;;;9.40;3.20;;;;;;;21.84;54.94;98678.22;4915669;29;20302;-88
2023/05/22 05:47:07;;;;;;;5.33;2.57;;;;;;;21.82;54.92;98678.41;4915787;29;20273;-88
2023/05/22 05:49:33;;;;;;;6.90;2.63;;;;;;;21.93;54.90;98678.09;4914862;29;20183;-88
2023/05/22 05:51:58;;;;;;;9.63;2.27;;;;;;;21.92;53.39;98687.13;4915609;29;20710;-89
2023/05/22 05:54:27;;;;;;;5.43;2.43;;;;;;;21.91;52.39;98693.44;4915418;29;20171;-88
2023/05/22 05:56:53;;;;;;;6.03;2.27;;;;;;;21.96;52.96;98696.47;4915643;29;20183;-88
2023/05/22 05:59:18;;;;;;;4.47;2.10;;;;;;;22.13;53.98;98692.00;4914988;29;20205;-89
2023/05/22 06:01:44;;;;;;;7.23;2.20;;;;;;;22.26;49.65;98691.53;4932592;29;20684;-89
2023/05/22 06:04:11;;;;;;;6.97;2.43;;;;;;;22.25;49.99;98693.34;4917449;29;20198;-88
2023/05/22 06:06:38;;;;;;;5.17;2.30;;;;;;;22.39;51.79;98687.38;4917255;29;20191;-86
2023/05/22 06:09:05;;;;;;;8.07;2.17;;;;;;;22.44;50.00;98701.06;4917568;29;20174;-88
2023/05/22 06:11:31;;;;;;;6.30;2.00;;;;;;;22.71;49.53;98685.72;4917577;29;20191;-89
2023/05/22 06:13:58;;;;;;;5.83;2.10;;;;;;;22.82;47.39;98688.06;4917150;29;20538;-89
2023/05/22 06:16:24;;;;;;;4.73;1.90;;;;;;;22.73;45.61;98689.91;4917160;29;20194;-89
2023/05/22 06:18:51;;;;;;;4.97;1.97;;;;;;;22.60;46.88;98698.41;4917135;29;20253;-88
2023/05/22 06:21:19;;;;;;;5.73;2.10;;;;;;;22.83;46.58;98705.75;4917275;29;20174;-86
2023/05/22 06:23:45;;;;;;;4.40;1.60;;;;;;;22.82;47.22;98698.75;4917292;29;20657;-89
2023/05/22 06:26:12;;;;;;;9.57;2.50;;;;;;;23.05;48.95;98694.38;4917180;29;20175;-88
2023/05/22 06:28:38;;;;;;;4.27;2.07;;;;;;;23.48;48.20;98698.50;4905994;29;20589;-88
2023/05/22 06:31:03;;;;;;;4.97;2.10;;;;;;;23.79;48.49;98697.50;4898201;29;20182;-89
2023/05/22 06:33:29;;;;;;;9.93;2.17;;;;;;;24.06;45.65;98687.31;4900240;29;20187;-89
2023/05/22 06:35:55;;;;;;;5.03;1.80;;;;;;;24.18;47.07;98689.47;4917049;29;20189;-88
2023/05/22 06:38:20;;;;;;;5.33;2.03;;;;;;;24.45;46.17;98693.44;4917033;29;20175;-88
2023/05/22 06:40:46;;;;;;;4.57;2.00;;;;;;;24.74;48.17;98688.19;4916895;29;20178;-88
2023/05/22 06:43:11;;;;;;;4.37;1.93;;;;;;;25.10;45.17;98690.22;4916783;29;20178;-89
2023/05/22 06:45:37;;;;;;;7.97;2.47;;;;;;;25.02;42.93;98683.09;4916928;29;20197;-89
2023/05/22 06:48:03;;;;;;;11.63;2.80;;;;;;;25.11;44.77;98689.19;4916972;29;20197;-89
2023/05/22 06:50:29;;;;;;;5.40;1.80;;;;;;;25.18;43.14;98687.47;4916013;29;20186;-86
2023/05/22 06:52:55;;;;;;;6.60;2.13;;;;;;;25.30;44.36;98685.97;4916766;29;20205;-86
2023/05/22 06:55:21;;;;;;;5.40;1.97;;;;;;;25.33;43.43;98682.94;4917190;29;20605;-86
2023/05/22 06:57:46;;;;;;;4.90;2.50;;;;;;;25.32;43.21;98690.16;4915915;29;20194;-86
2023/05/22 07:00:13;;;;;;;4.27;2.23;;;;;;;25.39;42.50;98690.25;4917162;29;20565;-87
2023/05/22 07:02:39;;;;;;;5.90;1.80;;;;;;;25.37;44.27;98692.25;4916689;29;20197;-86
2023/05/22 07:05:05;;;;;;;4.90;1.97;;;;;;;25.38;44.50;98688.56;4915738;29;20210;-86
2023/05/22 07:07:31;;;;;;;11.60;2.00;;;;;;;25.53;42.73;98690.28;4921050;29;20631;-86
2023/05/22 07:09:56;;;;;;;8.93;2.73;;;;;;;25.58;42.15;98693.22;4920371;29;20186;-86
2023/05/22 07:12:24;;;;;;;12.23;2.27;;;;;;;25.80;44.66;98695.97;4920504;29;20182;-86
2023/05/22 07:14:51;;;;;;;6.80;2.53;;;;;;;25.90;42.59;98693.81;4921016;29;20240;-86
2023/05/22 07:17:17;;;;;;;8.20;1.87;;;;;;;25.89;42.75;98693.00;4920451;29;20182;-86
2023/05/22 07:19:43;;;;;;;4.93;2.23;;;;;;;26.15;44.36;98695.22;4920224;29;20195;-86
2023/05/22 07:22:08;;;;;;;5.50;1.90;;;;;;;26.39;42.78;98694.00;4920354;29;20181;-87
2023/05/22 07:24:33;;;;;;;7.00;2.20;;;;;;;26.70;42.94;98689.94;4919277;29;20202;-86
2023/05/22 07:27:00;;;;;;;8.77;2.90;;;;;;;26.92;40.62;98689.94;4920778;29;20188;-86
2023/05/22 07:29:28;;;;;;;4.00;2.00;;;;;;;26.85;39.97;98692.59;4919954;29;20175;-88
2023/05/22 07:31:53;;;;;;;4.70;1.83;;;;;;;26.94;41.08;98696.78;4920401;29;20273;-87
2023/05/22 07:34:19;;;;;;;5.97;2.53;;;;;;;27.07;40.08;98706.84;4920612;29;20189;-86
2023/05/22 07:36:46;;;;;;;3.43;2.00;;;;;;;27.02;40.55;98696.66;4920357;29;20170;-87
2023/05/22 07:39:12;;;;;;;3.43;1.93;;;;;;;27.05;39.32;98693.56;4919012;29;20189;-86
2023/05/22 07:41:38;;;;;;;4.53;2.08;;;;;;;27.00;39.94;98693.31;4920042;29;20182;-86
2023/05/22 07:44:04;;;;;;;3.53;2.00;;;;;;;26.89;39.07;98698.44;4919927;29;20225;-86
2023/05/22 07:46:29;;;;;;;3.73;1.90;;;;;;;26.88;39.66;98700.28;4920192;29;20625;-86
2023/05/22 07:48:55;;;;;;;4.73;2.37;;;;;;;26.93;39.79;98708.59;4919818;29;20639;-86
2023/05/22 07:51:30;;;;;;;9.30;1.88;;;;;;;26.88;40.12;98712.88;4919852;29;20618;-88
2023/05/22 07:53:55;;;;;;;9.13;2.10;;;;;;;26.90;40.42;98708.97;4934987;29;20202;-87
2023/05/22 07:56:21;;;;;;;10.97;2.30;;;;;;;27.15;39.52;98706.69;4904016;29;20270;-87
2023/05/22 07:58:49;;;;;;;8.37;2.17;;;;;;;27.27;41.83;98705.94;4900782;29;20175;-87
2023/05/22 08:01:15;;;;;;;4.03;1.80;;;;;;;27.39;38.33;98703.53;4899863;29;20187;-88
2023/05/22 08:03:46;;;;;;;5.27;1.93;;;;;;;27.43;37.22;98700.28;4899739;29;20221;-89
2023/05/22 08:06:11;;;;;;;6.95;2.33;;;;;;;27.12;38.01;98705.19;4901040;29;20194;-87
2023/05/22 08:08:39;;;;;;;6.70;2.20;;;;;;;27.18;37.15;98693.66;4899596;29;20715;-87
2023/05/22 08:11:05;;;;;;;6.88;2.35;;;;;;;27.14;38.79;98697.78;4915536;29;20555;-87
2023/05/22 08:13:33;;;;;;;5.07;2.22;;;;;;;27.22;37.75;98689.56;4919707;29;20253;-87
2023/05/22 08:15:58;;;;;;;5.80;2.15;;;;;;;27.29;37.71;98692.28;4918326;29;20283;-87
2023/05/22 08:18:26;;;;;;;5.93;1.95;;;;;;;27.47;39.35;98691.78;4919346;29;20554;-87
2023/05/22 08:20:52;;;;;;;4.05;1.73;;;;;;;27.57;38.21;98694.97;4919321;29;20384;-87
2023/05/22 08:23:18;;;;;;;3.53;1.55;;;;;;;27.90;39.02;98695.97;4919366;29;20273;-88
2023/05/22 08:26:32;;;;;;;4.85;1.77;;;;;;;27.68;37.74;98702.47;4919305;29;20190;-89
2023/05/22 08:29:22;;;;;;;;;;;;;;;;;;;;;
2023/05/22 08:31:48;;;;;;;4.25;1.85;;;;;;;28.13;37.13;98701.88;4919783;29;20179;-87
2023/05/22 08:34:13;;;;;;;3.40;1.70;;;;;;;28.25;38.97;98694.84;4919096;29;20261;-88
2023/05/22 08:36:59;;;;;;;7.22;1.95;;;;;;;28.60;36.09;98698.22;4918386;29;20186;-88
2023/05/22 08:39:49;;;;;;;5.65;2.05;;;;;;;28.68;37.70;98689.13;4919571;29;20182;-88
2023/05/22 08:42:15;;;;;;;7.35;4.28;;;;;;;28.82;36.86;98690.81;4918176;29;20631;-88
2023/05/22 08:44:44;;;;;;;9.63;3.30;;;;;;;28.45;36.01;98694.91;4919134;29;20194;-87
2023/05/22 08:50:08;;;;;;;3.83;1.63;;;;;;;28.43;36.13;98691.59;4908344;23;20322;-89
2023/05/22 08:52:47;;;;;;;4.43;1.85;;;;;;;28.37;35.68;98692.41;4881392;29;20223;-87
2023/05/22 08:59:25;;;;;;;4.72;1.50;;;;;;;28.42;35.28;98679.97;4859908;29;20188;-90
2023/05/22 09:05:18;;;;;;;4.32;1.70;;;;;;;28.47;33.67;98673.94;4899617;29;20211;-88
2023/05/22 09:08:07;;;;;;;;;;;;;;;;;;;;;
2023/05/22 09:11:10;;;;;;;3.58;2.03;;;;;;;28.85;38.48;98675.03;4877162;29;20184;-87
2023/05/22 09:14:01;;;;;;;2.97;1.83;;;;;;;28.82;38.29;98677.31;4871140;29;20200;-88
2023/05/22 09:16:32;;;;;;;3.15;1.10;;;;;;;28.97;33.70;98667.16;4878173;29;20199;-88
2023/05/22 09:19:06;;;;;;;5.25;1.45;;;;;;;28.96;32.22;98678.97;4879479;29;20266;-88
2023/05/22 09:21:40;;;;;;;8.30;1.52;;;;;;;29.09;31.88;98670.84;4887647;29;20672;-88
2023/05/22 09:24:23;;;;;;;4.15;1.83;;;;;;;29.25;33.19;98673.16;4876574;29;20210;-90
2023/05/22 09:27:29;;;;;;;7.10;1.95;;;;;;;29.11;35.49;98675.00;4879942;29;20274;-88
2023/05/22 09:29:56;;;;;;;3.63;1.60;;;;;;;29.28;35.41;98672.72;4871840;29;20207;-88
2023/05/22 09:32:55;;;;;;;3.55;1.35;;;;;;;29.57;36.34;98666.84;4879973;29;20243;-88
2023/05/22 09:35:31;;;;;;;4.32;1.50;;;;;;;29.40;33.99;98671.06;4884475;29;20227;-87
2023/05/22 09:37:59;;;;;;;6.00;1.58;;;;;;;29.51;32.93;98670.38;4879555;29;20202;-88
2023/05/22 09:40:39;;;;;;;4.45;1.27;;;;;;;29.20;32.50;98672.91;4879574;29;20192;-89
2023/05/22 09:43:19;;;;;;;2.88;1.17;;;;;;;29.33;31.96;98666.69;4893825;29;20656;-89
2023/05/22 09:46:06;;;;;;;3.85;1.60;;;;;;;29.41;32.78;98663.75;4881148;29;20180;-89
2023/05/22 09:48:36;;;;;;;4.57;1.33;;;;;;;29.26;30.27;98676.69;4880135;29;20738;-87
2023/05/22 09:51:03;;;;;;;4.57;1.60;;;;;;;29.31;30.63;98675.00;4894926;29;20180;-87
2023/05/22 09:53:31;;;;;;;5.28;1.42;;;;;;;29.42;30.17;98663.56;4880244;29;20261;-88
2023/05/22 09:56:03;;;;;;;4.05;1.70;;;;;;;29.51;31.94;98664.16;4879013;29;20215;-89
2023/05/22 09:58:37;;;;;;;10.68;2.17;;;;;;;29.60;30.11;98662.88;4895500;29;20172;-89
2023/05/22 10:01:09;;;;;;;5.10;1.80;;;;;;;29.79;29.73;98670.97;4884652;29;20167;-89
2023/05/22 10:04:13;;;;;;;4.20;1.75;;;;;;;29.42;30.73;98663.56;4898697;29;20559;-89
2023/05/22 10:06:43;;;;;;;4.35;1.55;;;;;;;29.17;31.65;98665.25;4865331;29;20276;-88
2023/05/22 10:09:15;;;;;;;3.55;1.73;;;;;;;29.11;33.88;98658.81;4866990;29;20188;-88
2023/05/22 10:11:55;;;;;;;3.80;1.67;;;;;;;28.97;31.55;98659.03;4894997;29;20529;-89
2023/05/22 10:14:22;;;;;;;4.05;1.60;;;;;;;28.86;33.14;98649.72;4879872;29;20170;-87
2023/05/22 10:17:10;;;;;;;7.35;1.48;;;;;;;28.82;33.25;98653.03;4883693;29;20178;-89
2023/05/22 10:19:36;;;;;;;3.30;1.42;;;;;;;29.35;31.33;98640.34;4898668;29;20174;-88
2023/05/22 10:22:03;;;;;;;5.10;1.50;;;;;;;29.69;32.77;98635.41;4896305;29;20187;-87
2023/05/22 10:24:30;;;;;;;5.63;1.52;;;;;;;29.64;33.39;98637.91;4894516;29;20214;-88
2023/05/22 10:26:56;;;;;;;3.10;1.42;;;;;;;29.85;31.24;98644.94;4878534;29;20653;-88
2023/05/22 10:29:50;;;;;;;8.10;1.30;;;;;;;29.50;31.53;98646.31;4880178;29;20184;-88
2023/05/22 10:32:52;;;;;;;2.80;1.20;;;;;;;29.30;32.67;98643.66;4879936;29;20611;-88
2023/05/22 10:35:45;;;;;;;5.10;1.58;;;;;;;29.48;33.64;98638.41;4879977;29;20183;-88
2023/05/22 10:38:46;;;;;;;6.82;1.88;;;;;;;29.53;32.69;98635.06;4880052;29;20264;-88
2023/05/22 10:41:12;;;;;;;4.00;1.35;;;;;;;29.52;34.12;98628.84;4878938;29;20156;-88
2023/05/22 10:44:16;;;;;;;6.85;2.33;;;;;;;29.34;32.47;98625.16;4878372;29;20215;-88
2023/05/22 10:46:50;;;;;;;4.13;1.73;;;;;;;29.11;34.34;98625.63;4893926;29;20232;-88
2023/05/22 10:49:21;;;;;;;3.15;1.42;;;;;;;29.30;33.31;98624.75;4879264;29;20726;-88
2023/05/22 10:51:47;;;;;;;3.17;1.25;;;;;;;29.60;33.66;98625.91;4879762;29;20184;-88
2023/05/22 10:54:12;;;;;;;4.35;1.65;;;;;;;29.65;33.98;98625.25;4879393;29;20513;-88
2023/05/22 10:56:38;;;;;;;6.70;1.90;;;;;;;29.63;33.07;98614.66;4878733;29;20246;-88
2023/05/22 10:59:06;;;;;;;3.35;1.20;;;;;;;29.59;32.92;98608.03;4894006;29;20183;-88
2023/05/22 11:01:34;;;;;;;4.38;1.48;;;;;;;29.64;32.73;98610.91;4879344;29;20210;-87
2023/05/22 11:04:14;;;;;;;5.60;2.15;;;;;;;29.57;33.46;98604.72;4893712;29;20199;-88
2023/05/22 11:06:49;;;;;;;3.75;1.80;;;;;;;29.57;33.52;98602.00;4878357;29;20183;-88
2023/05/22 11:09:42;;;;;;;4.63;1.77;;;;;;;29.75;33.39;98594.03;4893780;29;20655;-89
2023/05/22 11:12:23;;;;;;;4.35;1.70;;;;;;;29.65;32.73;98596.38;4879153;29;20266;-86
2023/05/22 11:15:06;;;;;;;6.00;1.90;;;;;;;29.71;33.41;98592.81;4879852;29;20164;-88
2023/05/22 11:21:12;;;;;;;10.05;2.50;;;;;;;29.71;33.35;98586.56;4896977;29;20187;-89
2023/05/22 11:23:38;;;;;;;4.93;1.77;;;;;;;29.74;34.55;98580.75;4882202;29;20668;-88
2023/05/22 11:26:18;;;;;;;10.05;1.65;;;;;;;29.77;32.84;98578.41;4878187;29;20195;-86
2023/05/22 11:28:48;;;;;;;6.15;2.00;;;;;;;29.74;32.70;98575.34;4879007;29;20192;-88
2023/05/22 11:31:15;;;;;;;6.68;1.80;;;;;;;29.99;33.60;98570.84;4879110;29;20263;-87
2023/05/22 11:33:41;;;;;;;4.93;1.70;;;;;;;30.03;33.06;98576.66;4879094;29;20268;-88
2023/05/22 11:36:08;;;;;;;5.35;2.17;;;;;;;30.17;34.27;98572.78;4879013;29;20604;-88
2023/05/22 11:38:37;;;;;;;7.85;1.85;;;;;;;30.19;33.62;98570.72;4878096;29;20555;-88
2023/05/22 11:41:03;;;;;;;5.93;2.08;;;;;;;30.19;33.03;98573.44;4878876;29;20184;-88
2023/05/22 11:43:38;;;;;;;3.72;2.08;;;;;;;30.28;32.81;98570.22;4878875;29;20172;-88
2023/05/22 11:46:09;;;;;;;6.72;2.13;;;;;;;30.48;31.60;98559.25;4879254;29;20175;-88
2023/05/22 11:49:32;;;;;;;3.90;2.03;;;;;;;30.41;31.98;98563.91;4879217;29;20203;-89
2023/05/22 11:55:18;;;;;;;7.20;2.17;;;;;;;30.02;33.46;98564.19;4884669;29;20283;-87
2023/05/22 11:57:43;;;;;;;4.65;2.10;;;;;;;30.38;31.84;98561.63;4880922;29;20650;-87
2023/05/22 12:00:09;;;;;;;4.35;1.63;;;;;;;30.63;30.91;98548.13;4881507;29;20638;-88
2023/05/22 12:02:35;;;;;;;4.68;2.10;;;;;;;30.79;31.82;98545.63;4882357;29;20176;-87
2023/05/22 12:05:01;;;;;;;7.07;2.28;;;;;;;30.97;30.61;98553.84;4882003;29;20210;-88